createdAt,value
2023-02-24T00:00:02.667Z,94.26
2023-02-24T00:01:02.445Z,94.46
2023-02-24T00:02:03.090Z,94.46
2023-02-24T00:03:03.829Z,94.77
2023-02-24T00:04:03.484Z,94.98
2023-02-24T00:05:03.307Z,95.07
2023-02-24T00:06:03.461Z,95.07
2023-02-24T00:07:03.338Z,94.98
2023-02-24T00:08:03.484Z,94.67
2023-02-24T00:09:03.328Z,94.56
2023-02-24T00:10:03.579Z,94.46
2023-02-24T00:11:03.922Z,94.46
2023-02-24T00:12:03.377Z,94.56
2023-02-24T00:13:03.010Z,94.36
2023-02-24T00:14:03.245Z,94.46
2023-02-24T00:15:03.117Z,94.36
2023-02-24T00:16:03.322Z,94.36
2023-02-24T00:17:03.706Z,94.15
2023-02-24T00:18:03.122Z,94.15
2023-02-24T00:19:03.608Z,94.15
2023-02-24T00:20:03.347Z,94.36
2023-02-24T00:21:03.307Z,94.46
2023-02-24T00:22:03.649Z,94.46
2023-02-24T00:23:03.237Z,94.87
2023-02-24T00:24:03.276Z,94.87
2023-02-24T00:25:03.758Z,94.87
2023-02-24T00:26:03.309Z,94.98
2023-02-24T00:27:03.201Z,94.77
2023-02-24T00:28:02.933Z,94.56
2023-02-24T00:29:03.068Z,94.67
2023-02-24T00:30:02.947Z,94.67
2023-02-24T00:31:02.958Z,94.56
2023-02-24T00:32:03.701Z,94.67
2023-02-24T00:33:03.333Z,94.56
2023-02-24T00:34:03.597Z,94.46
2023-02-24T00:35:03.466Z,94.36
2023-02-24T00:36:03.095Z,94.46
2023-02-24T00:37:02.820Z,94.67
2023-02-24T00:38:02.343Z,94.56
2023-02-24T00:39:02.795Z,94.67
2023-02-24T00:40:02.859Z,94.67
2023-02-24T00:41:02.941Z,94.46
2023-02-24T00:42:02.485Z,94.36
2023-02-24T00:43:02.903Z,94.36
2023-02-24T00:44:02.784Z,94.26
2023-02-24T00:45:02.625Z,94.26
2023-02-24T00:46:02.999Z,94.26
2023-02-24T00:47:03.069Z,94.36
2023-02-24T00:48:02.818Z,94.46
2023-02-24T00:49:02.993Z,94.36
2023-02-24T00:50:03.213Z,94.36
2023-02-24T00:51:02.888Z,94.46
2023-02-24T00:52:03.378Z,94.87
2023-02-24T00:53:03.460Z,95.07
2023-02-24T00:54:03.170Z,94.98
2023-02-24T00:55:03.056Z,94.87
2023-02-24T00:56:02.950Z,94.67
2023-02-24T00:57:03.803Z,94.46
2023-02-24T00:58:03.476Z,94.36
2023-02-24T00:59:03.718Z,94.15
2023-02-24T01:00:03.351Z,94.15
2023-02-24T01:01:03.288Z,94.15
2023-02-24T01:02:03.268Z,94.15
2023-02-24T01:03:02.783Z,94.01
2023-02-24T01:04:03.185Z,93.80
2023-02-24T01:05:02.835Z,93.49
2023-02-24T01:06:03.236Z,94.05
2023-02-24T01:07:03.152Z,94.26
2023-02-24T01:08:03.544Z,94.36
2023-02-24T01:09:03.200Z,94.77
2023-02-24T01:10:03.076Z,94.98
2023-02-24T01:11:03.449Z,95.07
2023-02-24T01:12:03.551Z,94.87
2023-02-24T01:13:03.491Z,94.77
2023-02-24T01:14:03.230Z,94.77
2023-02-24T01:15:03.146Z,94.87
2023-02-24T01:16:03.593Z,94.87
2023-02-24T01:17:02.681Z,94.87
2023-02-24T01:18:02.766Z,94.87
2023-02-24T01:19:02.667Z,94.77
2023-02-24T01:20:02.300Z,94.77
2023-02-24T01:21:02.302Z,94.87
2023-02-24T01:22:03.138Z,94.77
2023-02-24T01:23:03.203Z,94.77
2023-02-24T01:24:02.840Z,94.67
2023-02-24T01:25:03.147Z,94.67
2023-02-24T01:26:02.797Z,94.56
2023-02-24T01:27:03.096Z,94.56
2023-02-24T01:28:03.224Z,94.56
2023-02-24T01:29:03.739Z,94.77
2023-02-24T01:30:03.640Z,94.56
2023-02-24T01:31:03.397Z,94.87
2023-02-24T01:32:03.501Z,95.49
2023-02-24T01:33:02.982Z,95.69
2023-02-24T01:34:03.233Z,95.69
2023-02-24T01:35:03.214Z,95.49
2023-02-24T01:36:02.789Z,95.28
2023-02-24T01:37:03.250Z,95.39
2023-02-24T01:38:03.335Z,95.28
2023-02-24T01:39:03.465Z,95.49
2023-02-24T01:40:03.393Z,95.39
2023-02-24T01:41:03.397Z,94.87
2023-02-24T01:42:02.659Z,95.18
2023-02-24T01:43:02.968Z,95.32
2023-02-24T01:44:03.034Z,95.74
2023-02-24T01:45:02.850Z,96.66
2023-02-24T01:46:02.551Z,96.56
2023-02-24T01:47:03.288Z,96.35
2023-02-24T01:48:02.974Z,95.94
2023-02-24T01:49:03.355Z,95.84
2023-02-24T01:50:02.823Z,95.79
2023-02-24T01:51:03.165Z,95.69
2023-02-24T01:52:02.761Z,95.39
2023-02-24T01:53:02.430Z,95.49
2023-02-24T01:54:02.376Z,95.69
2023-02-24T01:55:02.731Z,95.69
2023-02-24T01:56:02.717Z,95.49
2023-02-24T01:57:02.856Z,95.49
2023-02-24T01:58:03.154Z,95.59
2023-02-24T01:59:03.109Z,95.59
2023-02-24T02:00:03.388Z,95.39
2023-02-24T02:01:03.307Z,95.84
2023-02-24T02:02:02.565Z,96.35
2023-02-24T02:03:03.052Z,96.04
2023-02-24T02:04:02.798Z,95.94
2023-02-24T02:05:02.870Z,96.35
2023-02-24T02:06:02.727Z,95.94
2023-02-24T02:07:03.157Z,96.45
2023-02-24T02:08:02.902Z,96.15
2023-02-24T02:09:03.424Z,96.25
2023-02-24T02:10:02.783Z,96.60
2023-02-24T02:11:02.790Z,97.02
2023-02-24T02:12:02.350Z,97.12
2023-02-24T02:13:02.141Z,97.22
2023-02-24T02:14:02.775Z,96.91
2023-02-24T02:15:02.325Z,97.12
2023-02-24T02:16:02.373Z,97.28
2023-02-24T02:17:02.918Z,96.77
2023-02-24T02:18:02.914Z,96.45
2023-02-24T02:19:02.847Z,96.35
2023-02-24T02:20:02.832Z,96.25
2023-02-24T02:21:03.263Z,96.60
2023-02-24T02:22:03.087Z,96.60
2023-02-24T02:23:03.550Z,96.65
2023-02-24T02:24:03.424Z,97.06
2023-02-24T02:25:03.107Z,97.27
2023-02-24T02:26:02.983Z,97.37
2023-02-24T02:27:02.416Z,97.47
2023-02-24T02:28:02.582Z,97.67
2023-02-24T02:29:02.512Z,97.57
2023-02-24T02:30:02.511Z,97.57
2023-02-24T02:31:02.588Z,97.06
2023-02-24T02:32:02.744Z,96.85
2023-02-24T02:33:03.024Z,96.95
2023-02-24T02:34:02.753Z,96.75
2023-02-24T02:35:02.560Z,97.37
2023-02-24T02:36:02.794Z,96.85
2023-02-24T02:37:03.095Z,96.90
2023-02-24T02:38:03.413Z,97.10
2023-02-24T02:39:02.841Z,97.10
2023-02-24T02:40:03.185Z,97.41
2023-02-24T02:41:03.197Z,96.90
2023-02-24T02:42:02.860Z,97.10
2023-02-24T02:43:02.419Z,97.41
2023-02-24T02:44:02.511Z,97.31
2023-02-24T02:45:02.434Z,97.20
2023-02-24T02:46:02.705Z,96.90
2023-02-24T02:47:02.593Z,97.05
2023-02-24T02:48:02.475Z,97.36
2023-02-24T02:49:02.675Z,97.81
2023-02-24T02:50:02.595Z,98.43
2023-02-24T02:51:02.401Z,98.94
2023-02-24T02:52:03.000Z,98.63
2023-02-24T02:53:03.138Z,98.28
2023-02-24T02:54:03.541Z,97.87
2023-02-24T02:55:03.186Z,98.12
2023-02-24T02:56:03.215Z,97.91
2023-02-24T02:57:02.398Z,98.02
2023-02-24T02:58:02.258Z,98.63
2023-02-24T02:59:02.127Z,98.18
2023-02-24T03:00:02.484Z,97.77
2023-02-24T03:01:02.407Z,97.66
2023-02-24T03:02:03.045Z,97.40
2023-02-24T03:03:02.869Z,97.91
2023-02-24T03:04:02.849Z,98.63
2023-02-24T03:05:03.268Z,98.43
2023-02-24T03:06:02.866Z,97.71
2023-02-24T03:07:03.098Z,97.61
2023-02-24T03:08:02.637Z,98.02
2023-02-24T03:09:02.868Z,97.81
2023-02-24T03:10:02.775Z,97.61
2023-02-24T03:11:03.178Z,97.30
2023-02-24T03:12:03.196Z,97.30
2023-02-24T03:13:02.930Z,97.50
2023-02-24T03:14:02.882Z,97.50
2023-02-24T03:15:02.824Z,97.30
2023-02-24T03:16:03.238Z,97.61
2023-02-24T03:17:02.415Z,97.44
2023-02-24T03:18:02.892Z,97.75
2023-02-24T03:19:02.997Z,97.81
2023-02-24T03:20:02.570Z,97.40
2023-02-24T03:21:02.925Z,97.50
2023-02-24T03:22:03.093Z,97.50
2023-02-24T03:23:02.850Z,96.73
2023-02-24T03:24:03.132Z,96.68
2023-02-24T03:25:03.038Z,96.47
2023-02-24T03:26:02.697Z,96.27
2023-02-24T03:27:02.355Z,96.47
2023-02-24T03:28:02.660Z,96.68
2023-02-24T03:29:02.524Z,96.68
2023-02-24T03:30:02.549Z,96.37
2023-02-24T03:31:02.504Z,96.47
2023-02-24T03:32:03.146Z,96.27
2023-02-24T03:33:02.743Z,96.47
2023-02-24T03:34:02.410Z,96.58
2023-02-24T03:35:02.608Z,96.78
2023-02-24T03:36:02.643Z,96.47
2023-02-24T03:37:03.005Z,96.17
2023-02-24T03:38:02.770Z,96.17
2023-02-24T03:39:03.235Z,95.96
2023-02-24T03:40:03.320Z,95.65
2023-02-24T03:41:03.296Z,96.06
2023-02-24T03:42:03.243Z,96.37
2023-02-24T03:43:02.882Z,96.47
2023-02-24T03:44:03.149Z,96.52
2023-02-24T03:45:03.018Z,96.72
2023-02-24T03:46:02.964Z,96.72
2023-02-24T03:47:02.399Z,96.72
2023-02-24T03:48:02.742Z,96.62
2023-02-24T03:49:02.935Z,96.72
2023-02-24T03:50:02.458Z,96.83
2023-02-24T03:51:02.485Z,96.72
2023-02-24T03:52:03.453Z,96.62
2023-02-24T03:53:03.283Z,96.52
2023-02-24T03:54:03.288Z,96.62
2023-02-24T03:55:03.254Z,96.93
2023-02-24T03:56:02.905Z,96.31
2023-02-24T03:57:02.899Z,96.52
2023-02-24T03:58:03.073Z,96.11
2023-02-24T03:59:02.943Z,96.42
2023-02-24T04:00:03.073Z,96.31
2023-02-24T04:01:03.164Z,95.90
2023-02-24T04:02:02.431Z,96.00
2023-02-24T04:03:02.549Z,96.15
2023-02-24T04:04:02.221Z,96.36
2023-02-24T04:05:02.720Z,96.88
2023-02-24T04:06:02.313Z,96.88
2023-02-24T04:07:02.639Z,96.77
2023-02-24T04:08:02.854Z,96.97
2023-02-24T04:09:02.445Z,96.88
2023-02-24T04:10:02.482Z,96.46
2023-02-24T04:11:02.905Z,96.46
2023-02-24T04:12:02.113Z,96.56
2023-02-24T04:13:02.261Z,96.50
2023-02-24T04:14:02.024Z,96.61
2023-02-24T04:15:01.933Z,97.02
2023-02-24T04:16:02.101Z,96.88
2023-02-24T04:17:02.120Z,96.25
2023-02-24T04:18:02.645Z,96.36
2023-02-24T04:19:02.080Z,96.56
2023-02-24T04:20:02.165Z,96.56
2023-02-24T04:21:02.002Z,96.05
2023-02-24T04:22:02.259Z,95.64
2023-02-24T04:23:02.480Z,95.74
2023-02-24T04:24:02.475Z,95.84
2023-02-24T04:25:02.298Z,96.15
2023-02-24T04:26:02.054Z,95.84
2023-02-24T04:27:03.083Z,95.89
2023-02-24T04:28:02.802Z,96.20
2023-02-24T04:29:02.804Z,96.20
2023-02-24T04:30:02.703Z,96.30
2023-02-24T04:31:02.685Z,96.61
2023-02-24T04:32:02.343Z,96.71
2023-02-24T04:33:02.640Z,96.41
2023-02-24T04:34:02.096Z,96.41
2023-02-24T04:35:02.196Z,96.09
2023-02-24T04:36:02.427Z,96.09
2023-02-24T04:37:02.268Z,95.89
2023-02-24T04:38:02.747Z,96.14
2023-02-24T04:39:02.335Z,96.30
2023-02-24T04:40:02.523Z,95.78
2023-02-24T04:41:02.754Z,95.78
2023-02-24T04:42:02.224Z,96.09
2023-02-24T04:43:02.604Z,95.78
2023-02-24T04:44:02.576Z,95.23
2023-02-24T04:45:02.898Z,95.02
2023-02-24T04:46:02.709Z,94.85
2023-02-24T04:47:02.634Z,95.37
2023-02-24T04:48:02.678Z,95.27
2023-02-24T04:49:03.041Z,95.23
2023-02-24T04:50:02.439Z,94.51
2023-02-24T04:51:02.809Z,94.40
2023-02-24T04:52:02.947Z,93.88
2023-02-24T04:53:02.961Z,94.20
2023-02-24T04:54:03.046Z,93.79
2023-02-24T04:55:02.635Z,93.48
2023-02-24T04:56:02.696Z,93.48
2023-02-24T04:57:02.355Z,93.68
2023-02-24T04:58:02.539Z,93.48
2023-02-24T04:59:02.105Z,93.88
2023-02-24T05:00:01.903Z,93.88
2023-02-24T05:01:02.252Z,93.68
2023-02-24T05:02:02.432Z,93.37
2023-02-24T05:03:02.443Z,93.06
2023-02-24T05:04:02.059Z,93.21
2023-02-24T05:05:02.121Z,93.48
2023-02-24T05:06:02.610Z,93.79
2023-02-24T05:07:02.982Z,93.48
2023-02-24T05:08:02.742Z,92.96
2023-02-24T05:09:02.651Z,93.16
2023-02-24T05:10:02.978Z,92.96
2023-02-24T05:11:03.092Z,92.86
2023-02-24T05:12:02.119Z,93.01
2023-02-24T05:13:02.564Z,93.21
2023-02-24T05:14:02.134Z,93.62
2023-02-24T05:15:01.939Z,93.31
2023-02-24T05:16:02.458Z,93.11
2023-02-24T05:17:02.793Z,93.11
2023-02-24T05:18:02.342Z,93.31
2023-02-24T05:19:02.379Z,93.62
2023-02-24T05:20:02.807Z,93.62
2023-02-24T05:21:02.273Z,93.66
2023-02-24T05:22:02.695Z,94.08
2023-02-24T05:23:02.603Z,93.62
2023-02-24T05:24:02.811Z,93.83
2023-02-24T05:25:02.827Z,93.83
2023-02-24T05:26:02.413Z,93.01
2023-02-24T05:27:02.457Z,92.80
2023-02-24T05:28:02.564Z,92.84
2023-02-24T05:29:02.389Z,93.05
2023-02-24T05:30:02.556Z,92.74
2023-02-24T05:31:02.405Z,92.84
2023-02-24T05:32:02.781Z,92.84
2023-02-24T05:33:02.373Z,92.53
2023-02-24T05:34:02.448Z,93.25
2023-02-24T05:35:02.724Z,92.84
2023-02-24T05:36:02.305Z,92.74
2023-02-24T05:37:01.873Z,92.74
2023-02-24T05:38:02.279Z,92.68
2023-02-24T05:39:01.743Z,92.99
2023-02-24T05:40:01.759Z,93.09
2023-02-24T05:41:02.150Z,92.68
2023-02-24T05:42:02.178Z,92.06
2023-02-24T05:43:01.955Z,92.68
2023-02-24T05:44:01.879Z,92.68
2023-02-24T05:45:01.798Z,92.72
2023-02-24T05:46:01.871Z,93.03
2023-02-24T05:47:02.727Z,93.13
2023-02-24T05:48:02.343Z,92.82
2023-02-24T05:49:02.635Z,92.82
2023-02-24T05:50:02.705Z,93.03
2023-02-24T05:51:05.043Z,92.78
2023-02-24T05:52:02.785Z,92.57
2023-02-24T05:53:02.963Z,92.78
2023-02-24T05:54:03.021Z,92.47
2023-02-24T05:55:02.563Z,92.06
2023-02-24T05:56:02.570Z,91.75
2023-02-24T05:57:02.212Z,91.85
2023-02-24T05:58:01.840Z,92.27
2023-02-24T05:59:01.866Z,91.96
2023-02-24T06:00:01.921Z,91.75
2023-02-24T06:01:02.315Z,91.44
2023-02-24T06:02:03.333Z,91.44
2023-02-24T06:03:03.361Z,90.72
2023-02-24T06:04:03.144Z,90.72
2023-02-24T06:05:02.920Z,91.03
2023-02-24T06:06:03.426Z,91.24
2023-02-24T06:07:02.897Z,91.54
2023-02-24T06:08:03.011Z,91.34
2023-02-24T06:09:02.627Z,91.13
2023-02-24T06:10:02.581Z,90.66
2023-02-24T06:11:02.487Z,91.17
2023-02-24T06:12:03.168Z,91.38
2023-02-24T06:13:03.453Z,90.61
2023-02-24T06:14:03.278Z,90.51
2023-02-24T06:15:03.416Z,90.51
2023-02-24T06:16:02.989Z,90.76
2023-02-24T06:17:02.717Z,91.17
2023-02-24T06:18:02.890Z,91.03
2023-02-24T06:19:02.985Z,91.03
2023-02-24T06:20:02.907Z,90.97
2023-02-24T06:21:02.667Z,91.24
2023-02-24T06:22:03.365Z,90.82
2023-02-24T06:23:03.286Z,90.82
2023-02-24T06:24:03.006Z,91.07
2023-02-24T06:25:03.539Z,90.66
2023-02-24T06:26:03.144Z,90.55
2023-02-24T06:27:02.247Z,90.97
2023-02-24T06:28:02.247Z,91.28
2023-02-24T06:29:02.246Z,91.48
2023-02-24T06:30:02.339Z,91.07
2023-02-24T06:31:02.601Z,91.38
2023-02-24T06:32:02.838Z,91.03
2023-02-24T06:33:02.773Z,90.41
2023-02-24T06:34:02.787Z,90.41
2023-02-24T06:35:02.623Z,90.51
2023-02-24T06:36:02.618Z,90.20
2023-02-24T06:37:02.996Z,90.20
2023-02-24T06:38:02.930Z,90.66
2023-02-24T06:39:03.018Z,90.45
2023-02-24T06:40:02.734Z,90.35
2023-02-24T06:41:02.674Z,90.97
2023-02-24T06:42:03.217Z,90.55
2023-02-24T06:43:02.890Z,90.76
2023-02-24T06:44:02.786Z,90.86
2023-02-24T06:45:03.188Z,90.55
2023-02-24T06:46:03.567Z,90.70
2023-02-24T06:47:02.557Z,91.28
2023-02-24T06:48:02.706Z,91.28
2023-02-24T06:49:02.531Z,91.28
2023-02-24T06:50:02.430Z,90.76
2023-02-24T06:51:02.475Z,90.41
2023-02-24T06:52:03.132Z,89.89
2023-02-24T06:53:03.326Z,89.89
2023-02-24T06:54:03.606Z,90.10
2023-02-24T06:55:03.605Z,90.10
2023-02-24T06:56:03.525Z,90.10
2023-02-24T06:57:02.788Z,90.00
2023-02-24T06:58:03.149Z,89.89
2023-02-24T06:59:02.477Z,89.75
2023-02-24T07:00:02.751Z,89.65
2023-02-24T07:01:02.804Z,89.65
2023-02-24T07:02:02.336Z,90.06
2023-02-24T07:03:02.254Z,89.54
2023-02-24T07:04:02.111Z,89.34
2023-02-24T07:05:01.857Z,88.92
2023-02-24T07:06:02.023Z,89.44
2023-02-24T07:07:02.592Z,89.34
2023-02-24T07:08:02.370Z,88.14
2023-02-24T07:09:02.800Z,87.52
2023-02-24T07:10:02.440Z,87.11
2023-02-24T07:11:02.413Z,87.93
2023-02-24T07:12:02.929Z,88.35
2023-02-24T07:13:03.012Z,87.93
2023-02-24T07:14:03.068Z,88.04
2023-02-24T07:15:02.925Z,88.24
2023-02-24T07:16:02.753Z,88.04
2023-02-24T07:17:02.426Z,86.90
2023-02-24T07:18:02.659Z,86.18
2023-02-24T07:19:02.252Z,86.39
2023-02-24T07:20:02.338Z,86.53
2023-02-24T07:21:02.878Z,86.90
2023-02-24T07:22:02.830Z,86.90
2023-02-24T07:23:02.770Z,87.11
2023-02-24T07:24:02.193Z,87.32
2023-02-24T07:25:02.272Z,87.32
2023-02-24T07:26:02.307Z,87.01
2023-02-24T07:27:02.145Z,87.11
2023-02-24T07:28:01.891Z,87.21
2023-02-24T07:29:01.688Z,86.80
2023-02-24T07:30:01.633Z,86.80
2023-02-24T07:31:01.724Z,86.08
2023-02-24T07:32:02.644Z,86.49
2023-02-24T07:33:02.459Z,87.01
2023-02-24T07:34:01.830Z,87.01
2023-02-24T07:35:02.095Z,87.01
2023-02-24T07:36:02.264Z,87.32
2023-02-24T07:37:02.087Z,87.32
2023-02-24T07:38:02.528Z,87.52
2023-02-24T07:39:02.061Z,87.69
2023-02-24T07:40:02.275Z,87.79
2023-02-24T07:41:02.445Z,87.27
2023-02-24T07:42:02.200Z,87.17
2023-02-24T07:43:02.469Z,87.13
2023-02-24T07:44:02.643Z,87.03
2023-02-24T07:45:02.592Z,87.07
2023-02-24T07:46:02.343Z,87.34
2023-02-24T07:47:02.387Z,87.03
2023-02-24T07:48:02.885Z,87.03
2023-02-24T07:49:02.432Z,87.13
2023-02-24T07:50:02.837Z,86.87
2023-02-24T07:51:02.538Z,87.38
2023-02-24T07:52:01.896Z,87.54
2023-02-24T07:53:01.402Z,87.34
2023-02-24T07:54:01.401Z,87.13
2023-02-24T07:55:01.715Z,86.82
2023-02-24T07:56:02.028Z,86.72
2023-02-24T07:57:01.742Z,86.72
2023-02-24T07:58:01.535Z,86.72
2023-02-24T07:59:01.789Z,86.41
2023-02-24T08:00:02.042Z,86.61
2023-02-24T08:01:02.027Z,86.72
2023-02-24T08:02:03.073Z,86.72
2023-02-24T08:03:02.526Z,86.41
2023-02-24T08:04:03.004Z,86.10
2023-02-24T08:05:03.024Z,86.31
2023-02-24T08:06:03.093Z,86.72
2023-02-24T08:07:03.207Z,86.31
2023-02-24T08:08:02.734Z,86.55
2023-02-24T08:09:02.687Z,87.07
2023-02-24T08:10:02.584Z,87.59
2023-02-24T08:11:02.702Z,88.10
2023-02-24T08:12:02.569Z,88.06
2023-02-24T08:13:02.333Z,87.65
2023-02-24T08:14:02.329Z,87.34
2023-02-24T08:15:02.590Z,87.34
2023-02-24T08:16:02.696Z,87.13
2023-02-24T08:17:02.243Z,87.03
2023-02-24T08:18:02.147Z,86.93
2023-02-24T08:19:02.162Z,87.03
2023-02-24T08:20:02.277Z,87.27
2023-02-24T08:21:02.093Z,88.06
2023-02-24T08:22:02.213Z,87.75
2023-02-24T08:23:02.879Z,87.54
2023-02-24T08:24:02.487Z,87.65
2023-02-24T08:25:02.310Z,87.40
2023-02-24T08:26:02.768Z,87.19
2023-02-24T08:27:02.815Z,86.99
2023-02-24T08:28:08.075Z,86.27
2023-02-24T08:29:02.858Z,86.68
2023-02-24T08:30:02.865Z,86.82
2023-02-24T08:31:02.559Z,87.34
2023-02-24T08:32:02.288Z,87.60
2023-02-24T08:33:01.834Z,87.40
2023-02-24T08:34:02.398Z,86.79
2023-02-24T08:35:02.242Z,85.96
2023-02-24T08:36:02.766Z,86.37
2023-02-24T08:37:02.560Z,85.28
2023-02-24T08:38:02.542Z,85.69
2023-02-24T08:39:02.393Z,85.17
2023-02-24T08:40:02.415Z,86.00
2023-02-24T08:41:02.826Z,86.10
2023-02-24T08:42:02.356Z,85.69
2023-02-24T08:43:02.535Z,85.07
2023-02-24T08:44:02.840Z,86.10
2023-02-24T08:45:02.420Z,86.41
2023-02-24T08:46:02.396Z,86.58
2023-02-24T08:47:02.491Z,86.06
2023-02-24T08:48:02.041Z,84.42
2023-02-24T08:49:02.385Z,84.72
2023-02-24T08:50:01.937Z,84.14
2023-02-24T08:51:02.366Z,84.56
2023-02-24T08:52:02.663Z,84.25
2023-02-24T08:53:02.537Z,84.25
2023-02-24T08:54:02.422Z,84.25
2023-02-24T08:55:02.264Z,84.05
2023-02-24T08:56:02.848Z,83.53
2023-02-24T08:57:03.237Z,83.32
2023-02-24T08:58:02.907Z,83.42
2023-02-24T08:59:02.464Z,83.32
2023-02-24T09:00:02.952Z,83.42
2023-02-24T09:01:02.645Z,82.91
2023-02-24T09:02:04.989Z,82.81
2023-02-24T09:03:02.483Z,83.01
2023-02-24T09:04:02.593Z,82.91
2023-02-24T09:05:02.151Z,83.01
2023-02-24T09:06:02.402Z,83.07
2023-02-24T09:07:11.274Z,82.67
2023-02-24T09:08:02.472Z,83.18
2023-02-24T09:09:02.310Z,83.59
2023-02-24T09:10:02.188Z,82.15
2023-02-24T09:11:02.728Z,82.15
2023-02-24T09:12:02.672Z,83.07
2023-02-24T09:13:02.772Z,82.50
2023-02-24T09:14:02.205Z,83.01
2023-02-24T09:15:02.275Z,82.29
2023-02-24T09:16:02.567Z,83.01
2023-02-24T09:17:02.859Z,83.32
2023-02-24T09:18:02.705Z,83.42
2023-02-24T09:19:02.576Z,83.01
2023-02-24T09:20:02.825Z,83.73
2023-02-24T09:21:02.588Z,83.22
2023-02-24T09:22:05.931Z,83.32
2023-02-24T09:23:02.821Z,83.12
2023-02-24T09:24:03.011Z,83.87
2023-02-24T09:25:02.541Z,84.59
2023-02-24T09:26:02.939Z,84.49
2023-02-24T09:27:03.149Z,84.39
2023-02-24T09:28:02.564Z,85.22
2023-02-24T09:29:02.612Z,85.01
2023-02-24T09:30:02.767Z,85.01
2023-02-24T09:31:02.527Z,84.49
2023-02-24T09:32:02.239Z,84.77
2023-02-24T09:33:02.399Z,84.35
2023-02-24T09:34:02.351Z,84.97
2023-02-24T09:35:02.262Z,82.91
2023-02-24T09:36:02.275Z,82.81
2023-02-24T09:37:02.632Z,83.63
2023-02-24T09:38:02.153Z,83.22
2023-02-24T09:39:02.458Z,83.42
2023-02-24T09:40:02.343Z,83.42
2023-02-24T09:41:13.788Z,84.25
2023-02-24T09:42:02.341Z,83.84
2023-02-24T09:43:02.016Z,84.56
2023-02-24T09:44:02.053Z,83.49
2023-02-24T09:45:02.016Z,83.07
2023-02-24T09:46:02.720Z,83.80
2023-02-24T09:47:02.965Z,83.70
2023-02-24T09:48:02.701Z,82.46
2023-02-24T09:49:03.170Z,82.35
2023-02-24T09:50:02.598Z,82.35
2023-02-24T09:51:04.756Z,82.19
2023-02-24T09:52:02.386Z,82.19
2023-02-24T09:53:10.760Z,82.29
2023-02-24T09:54:02.491Z,81.77
2023-02-24T09:55:02.173Z,81.67
2023-02-24T09:56:02.148Z,81.26
2023-02-24T09:57:02.758Z,80.75
2023-02-24T09:58:02.544Z,81.47
2023-02-24T09:59:02.580Z,82.81
2023-02-24T10:00:02.746Z,82.70
2023-02-24T10:01:02.565Z,81.84
2023-02-24T10:02:02.610Z,82.05
2023-02-24T10:03:02.495Z,81.95
2023-02-24T10:04:06.218Z,81.16
2023-02-24T10:05:02.031Z,81.88
2023-02-24T10:06:02.232Z,82.09
2023-02-24T10:07:02.437Z,81.37
2023-02-24T10:08:02.180Z,82.09
2023-02-24T10:09:02.120Z,81.88
2023-02-24T10:10:02.697Z,81.98
2023-02-24T10:11:02.702Z,82.40
2023-02-24T10:12:01.731Z,82.09
2023-02-24T10:13:01.602Z,82.09
2023-02-24T10:14:04.655Z,81.98
2023-02-24T10:15:01.639Z,81.16
2023-02-24T10:17:02.137Z,81.71
2023-02-24T10:18:02.185Z,81.92
2023-02-24T10:19:01.912Z,82.02
2023-02-24T10:20:02.242Z,82.54
2023-02-24T10:21:02.241Z,82.43
2023-02-24T10:22:01.974Z,82.64
2023-02-24T10:23:01.589Z,82.43
2023-02-24T10:24:02.282Z,82.43
2023-02-24T10:25:01.741Z,82.64
2023-02-24T10:26:06.660Z,82.43
2023-02-24T10:28:02.020Z,82.23
2023-02-24T10:29:02.228Z,82.43
2023-02-24T10:30:02.143Z,82.64
2023-02-24T10:31:02.267Z,82.54
2023-02-24T10:32:02.865Z,82.95
2023-02-24T10:33:02.480Z,83.56
2023-02-24T10:34:02.439Z,83.47
2023-02-24T10:35:02.259Z,82.81
2023-02-24T10:36:02.433Z,82.64
2023-02-24T10:37:02.369Z,83.32
2023-02-24T10:38:02.559Z,83.53
2023-02-24T10:39:02.370Z,83.28
2023-02-24T10:40:02.600Z,82.35
2023-02-24T10:41:02.641Z,82.35
2023-02-24T10:42:02.306Z,82.67
2023-02-24T10:43:02.352Z,81.74
2023-02-24T10:44:02.327Z,82.56
2023-02-24T10:45:03.105Z,82.56
2023-02-24T10:46:02.190Z,81.74
2023-02-24T10:47:02.580Z,81.84
2023-02-24T10:48:02.128Z,81.43
2023-02-24T10:49:02.717Z,81.57
2023-02-24T10:50:02.667Z,81.57
2023-02-24T10:51:02.333Z,81.98
2023-02-24T10:52:01.827Z,82.50
2023-02-24T10:53:02.075Z,82.40
2023-02-24T10:54:01.622Z,82.70
2023-02-24T10:55:01.936Z,82.19
2023-02-24T10:56:02.134Z,82.19
2023-02-24T10:57:02.205Z,81.77
2023-02-24T10:58:02.334Z,81.98
2023-02-24T10:59:02.236Z,81.77
2023-02-24T11:00:02.383Z,81.88
2023-02-24T11:01:02.152Z,82.29
2023-02-24T11:02:02.604Z,82.50
2023-02-24T11:03:02.578Z,82.87
2023-02-24T11:04:02.915Z,82.56
2023-02-24T11:05:02.752Z,81.84
2023-02-24T11:06:02.584Z,81.43
2023-02-24T11:07:02.629Z,81.95
2023-02-24T11:08:02.504Z,81.95
2023-02-24T11:09:02.831Z,81.84
2023-02-24T11:10:02.779Z,81.81
2023-02-24T11:11:02.715Z,81.81
2023-02-24T11:12:03.306Z,81.49
2023-02-24T11:13:09.402Z,80.77
2023-02-24T11:14:03.484Z,81.09
2023-02-24T11:15:03.428Z,80.36
2023-02-24T11:16:03.057Z,80.57
2023-02-24T11:17:02.571Z,80.47
2023-02-24T11:18:02.421Z,80.57
2023-02-24T11:19:02.578Z,80.88
2023-02-24T11:20:02.770Z,80.57
2023-02-24T11:21:02.413Z,80.16
2023-02-24T11:22:02.721Z,80.67
2023-02-24T11:23:03.276Z,80.57
2023-02-24T11:24:02.992Z,80.88
2023-02-24T11:25:03.280Z,81.29
2023-02-24T11:26:02.897Z,81.60
2023-02-24T11:27:04.397Z,80.88
2023-02-24T11:28:02.705Z,81.29
2023-02-24T11:29:02.168Z,80.77
2023-02-24T11:30:02.687Z,79.95
2023-02-24T11:31:02.519Z,80.88
2023-02-24T11:32:03.151Z,80.77
2023-02-24T11:33:02.678Z,80.36
2023-02-24T11:34:02.618Z,81.09
2023-02-24T11:35:02.985Z,80.98
2023-02-24T11:36:02.821Z,80.67
2023-02-24T11:37:03.089Z,80.77
2023-02-24T11:38:02.973Z,80.71
2023-02-24T11:39:17.137Z,81.02
2023-02-24T11:40:03.076Z,81.02
2023-02-24T11:41:02.829Z,80.61
2023-02-24T11:42:02.764Z,80.91
2023-02-24T11:43:02.454Z,81.63
2023-02-24T11:44:02.180Z,80.61
2023-02-24T11:45:02.262Z,81.02
2023-02-24T11:46:02.304Z,81.23
2023-02-24T11:47:02.980Z,80.81
2023-02-24T11:48:02.581Z,80.81
2023-02-24T11:49:03.114Z,80.71
2023-02-24T11:50:04.954Z,81.12
2023-02-24T11:51:02.890Z,81.23
2023-02-24T11:52:03.220Z,81.23
2023-02-24T11:53:03.053Z,81.33
2023-02-24T11:54:02.857Z,81.02
2023-02-24T11:55:03.275Z,81.12
2023-02-24T11:56:02.913Z,80.71
2023-02-24T11:57:02.592Z,80.71
2023-02-24T11:58:02.452Z,80.30
2023-02-24T11:59:02.266Z,80.30
2023-02-24T12:00:02.880Z,80.61
2023-02-24T12:01:02.675Z,80.02
2023-02-24T12:02:02.707Z,80.54
2023-02-24T12:03:04.156Z,80.13
2023-02-24T12:04:02.465Z,80.33
2023-02-24T12:05:02.866Z,80.54
2023-02-24T12:06:02.679Z,80.91
2023-02-24T12:07:02.923Z,80.19
2023-02-24T12:08:02.447Z,79.79
2023-02-24T12:09:02.630Z,79.79
2023-02-24T12:10:14.436Z,79.88
2023-02-24T12:11:02.466Z,79.99
2023-02-24T12:12:02.320Z,79.47
2023-02-24T12:13:02.361Z,78.96
2023-02-24T12:14:02.065Z,78.65
2023-02-24T12:15:02.063Z,78.58
2023-02-24T12:16:02.299Z,78.89
2023-02-24T12:17:02.533Z,78.79
2023-02-24T12:18:02.440Z,78.79
2023-02-24T12:19:02.541Z,78.28
2023-02-24T12:20:02.577Z,78.58
2023-02-24T12:21:02.058Z,79.00
2023-02-24T12:22:02.809Z,79.61
2023-02-24T12:23:02.673Z,79.72
2023-02-24T12:24:02.781Z,79.41
2023-02-24T12:25:02.708Z,78.79
2023-02-24T12:26:02.339Z,78.89
2023-02-24T12:27:02.378Z,79.03
2023-02-24T12:28:01.833Z,79.44
2023-02-24T12:29:02.351Z,79.55
2023-02-24T12:30:01.956Z,79.86
2023-02-24T12:31:01.854Z,79.72
2023-02-24T12:32:02.611Z,79.93
2023-02-24T12:33:01.973Z,79.20
2023-02-24T12:34:02.389Z,79.03
2023-02-24T12:35:02.386Z,79.86
2023-02-24T12:36:02.033Z,79.34
2023-02-24T12:37:02.703Z,78.83
2023-02-24T12:38:02.559Z,79.44
2023-02-24T12:39:02.212Z,79.58
2023-02-24T12:40:02.505Z,80.10
2023-02-24T12:41:02.594Z,80.51
2023-02-24T12:42:01.502Z,81.58
2023-02-24T12:43:02.138Z,81.79
2023-02-24T12:44:01.582Z,81.99
2023-02-24T12:45:01.704Z,82.40
2023-02-24T12:46:02.140Z,83.33
2023-02-24T12:47:02.181Z,83.64
2023-02-24T12:48:02.385Z,83.85
2023-02-24T12:49:02.180Z,84.06
2023-02-24T12:50:02.539Z,83.71
2023-02-24T12:51:02.801Z,84.33
2023-02-24T12:52:02.825Z,84.53
2023-02-24T12:53:01.882Z,83.50
2023-02-24T12:54:01.869Z,84.27